Impacts TAF Board INFO
IDs:

KIAH - Houston/Bush Intl, TX, US

Issued at 1132 UTC 08 Dec 2016
Updated at 1156 UTC 08 Dec 2016
Potential Impact None Slight Moderate High
Time1153Z 08/12Z 08/13Z 08/14Z 08/15Z 08/16Z 08/17Z 08/18Z 08/19Z 08/20Z 08/21Z 08/22Z 08/23Z 09/00Z
Type OBS PRVL PRVL PRVL PRVL PRVL PRVL PRVL PRVL PRVL PRVL PRVL PRVL PRVL
VIS 5 >6 >6 >6 >6 >6 >6 >6 >6 >6 >6 >6 >6 >6
CIG 7 7 7 12 12 12 12 25 25 25 25 25 80 80
Cover OVC OVC OVC OVC OVC OVC OVC OVC OVC OVC OVC OVC BKN BKN
FltCat IFR IFR IFR MVFR MVFR MVFR MVFR MVFR MVFR MVFR MVFR MVFR VFR VFR
WX -RA BR -- -- -- -- -- -- -- -- -- -- -- -- --
WDir 10 10 10 10 10 10 10 360 360 360 360 360 360 360
WSpd 15 13 13 14 14 14 14 16 16 16 16 16 13 13
WGst -- -- -- 24 24 24 24 26 26 26 26 26 -- --

Raw TAF
KIAH 081132Z 0812/0918 01013KT P6SM OVC007
  FM081400 01014G24KT P6SM OVC012
  FM081800 36016G26KT P6SM OVC025
  FM082300 36013KT P6SM BKN080 BKN250
  FM090900 01006KT P6SM SCT080 BKN250


Raw METAR
KIAH 081153Z 01015KT 5SM -RA BR BKN007 OVC014 11/10 A3027 RMK AO2 RAE1055B28 SLP251 P0000 60009 70028 T01110100 10133 20111 51022
KIAH 081053Z 01010KT 7SM -RA OVC007 12/11 A3025 RMK AO2 SLP243 P0000 T01220111
KIAH 080953Z 36011KT 7SM -RA OVC008 12/11 A3023 RMK AO2 RAB0858E19B42 SLP238 P0000 T01220106
KIAH 080853Z 01013KT 10SM OVC008 12/11 A3021 RMK AO2 RAE24 SLP229 P0002 60009 T01220111 53008

METAR Board
Radar Display
Forecast Discussion